98CO weather

Ncmc Heliport
Greeley, Colorado, United States

Public forecast

Using degrees Fahrenheit for public forecast. Weather courtesy of forecast.io.

Closest aviation weather report (METAR) to Ncmc Heliport

Closest report is Greeley–Weld County Airport, 3.7 nm (6.8 km) ENE. Retrieved 2020/02/18 06:21 UTC (0 seconds ago):

KGXY 180621Z AUTO 19005KT 10SM FEW017 OVC090 M03/M06 A3016 RMK AO2 FZRANO

Closest aviation forecast (TAF) to Ncmc Heliport

Closest forecast is Denver International Airport, 33.3 nm (61.6 km) S. Retrieved 2020/02/18 06:36 UTC (0 seconds ago):

TAF KDEN 180535Z 1806/1912 08007KT P6SM BKN040 OVC100 TEMPO 1806/1809 2SM -SN BKN016 OVC040 FM181000 17006KT P6SM VCSH SCT015 BKN040 FM181400 20007KT P6SM SCT015 BKN060 FM181800 11006KT P6SM SCT060 FM190200 16007KT P6SM SCT020 BKN040 FM190600 VRB05KT P6SM BKN020 OVC035